sensor_id;sensor_type;location;lat;lon;timestamp;temperature;humidity
15072;DHT22;7635;56.696;13.002;2022-09-23T00:00:57;8.00;99.90
15072;DHT22;7635;56.696;13.002;2022-09-23T00:03:27;8.00;99.90
15072;DHT22;7635;56.696;13.002;2022-09-23T00:05:57;8.00;99.90
15072;DHT22;7635;56.696;13.002;2022-09-23T00:08:24;8.00;99.90
15072;DHT22;7635;56.696;13.002;2022-09-23T00:10:51;8.00;99.90
15072;DHT22;7635;56.696;13.002;2022-09-23T00:13:18;8.00;99.90
15072;DHT22;7635;56.696;13.002;2022-09-23T00:15:45;7.90;99.90
15072;DHT22;7635;56.696;13.002;2022-09-23T00:18:12;7.90;99.90
15072;DHT22;7635;56.696;13.002;2022-09-23T00:20:40;7.90;99.90
15072;DHT22;7635;56.696;13.002;2022-09-23T00:23:07;7.90;99.90
15072;DHT22;7635;56.696;13.002;2022-09-23T00:25:33;7.90;99.90
15072;DHT22;7635;56.696;13.002;2022-09-23T00:28:00;7.80;99.90
15072;DHT22;7635;56.696;13.002;2022-09-23T00:30:28;7.80;99.90
15072;DHT22;7635;56.696;13.002;2022-09-23T00:32:55;7.80;99.90
15072;DHT22;7635;56.696;13.002;2022-09-23T00:35:22;7.80;99.90
15072;DHT22;7635;56.696;13.002;2022-09-23T00:37:50;7.80;99.90
15072;DHT22;7635;56.696;13.002;2022-09-23T00:40:17;7.70;99.90
15072;DHT22;7635;56.696;13.002;2022-09-23T00:42:46;7.70;99.90
15072;DHT22;7635;56.696;13.002;2022-09-23T00:45:13;7.70;99.90
15072;DHT22;7635;56.696;13.002;2022-09-23T00:47:43;7.70;99.90
15072;DHT22;7635;56.696;13.002;2022-09-23T00:50:16;7.70;99.90
15072;DHT22;7635;56.696;13.002;2022-09-23T00:52:44;7.70;99.90
15072;DHT22;7635;56.696;13.002;2022-09-23T00:55:16;7.60;99.90
15072;DHT22;7635;56.696;13.002;2022-09-23T00:57:44;7.60;99.90
15072;DHT22;7635;56.696;13.002;2022-09-23T01:00:13;7.70;99.90
15072;DHT22;7635;56.696;13.002;2022-09-23T01:02:40;7.60;99.90
15072;DHT22;7635;56.696;13.002;2022-09-23T01:05:07;7.60;99.90
15072;DHT22;7635;56.696;13.002;2022-09-23T01:07:34;7.60;99.90
15072;DHT22;7635;56.696;13.002;2022-09-23T01:10:01;7.60;99.90
15072;DHT22;7635;56.696;13.002;2022-09-23T01:12:44;7.60;99.90
15072;DHT22;7635;56.696;13.002;2022-09-23T01:15:17;7.60;99.90
15072;DHT22;7635;56.696;13.002;2022-09-23T01:17:50;7.60;99.90
15072;DHT22;7635;56.696;13.002;2022-09-23T01:20:56;7.60;99.90
15072;DHT22;7635;56.696;13.002;2022-09-23T01:26:45;7.60;99.90
15072;DHT22;7635;56.696;13.002;2022-09-23T01:29:32;7.60;99.90
15072;DHT22;7635;56.696;13.002;2022-09-23T01:32:06;7.60;99.90
15072;DHT22;7635;56.696;13.002;2022-09-23T01:34:36;7.60;99.90
15072;DHT22;7635;56.696;13.002;2022-09-23T01:37:09;7.70;99.90
15072;DHT22;7635;56.696;13.002;2022-09-23T01:39:41;7.70;99.90
15072;DHT22;7635;56.696;13.002;2022-09-23T01:42:14;7.70;99.90
15072;DHT22;7635;56.696;13.002;2022-09-23T01:44:47;7.70;99.90
15072;DHT22;7635;56.696;13.002;2022-09-23T01:47:20;7.70;99.90
15072;DHT22;7635;56.696;13.002;2022-09-23T01:49:51;7.70;99.90
15072;DHT22;7635;56.696;13.002;2022-09-23T01:52:24;7.80;99.90
15072;DHT22;7635;56.696;13.002;2022-09-23T01:54:58;7.80;99.90
15072;DHT22;7635;56.696;13.002;2022-09-23T01:57:29;7.80;99.90
15072;DHT22;7635;56.696;13.002;2022-09-23T02:00:03;7.80;99.90
15072;DHT22;7635;56.696;13.002;2022-09-23T02:02:36;7.80;99.90
15072;DHT22;7635;56.696;13.002;2022-09-23T02:05:17;7.80;99.90
15072;DHT22;7635;56.696;13.002;2022-09-23T02:07:51;7.80;99.90
15072;DHT22;7635;56.696;13.002;2022-09-23T02:10:22;7.80;99.90
15072;DHT22;7635;56.696;13.002;2022-09-23T02:13:00;7.80;99.90
15072;DHT22;7635;56.696;13.002;2022-09-23T02:15:32;7.70;99.90
15072;DHT22;7635;56.696;13.002;2022-09-23T02:18:05;7.70;99.90
15072;DHT22;7635;56.696;13.002;2022-09-23T02:20:36;7.70;99.90
15072;DHT22;7635;56.696;13.002;2022-09-23T02:23:06;7.70;99.90
15072;DHT22;7635;56.696;13.002;2022-09-23T02:25:38;7.60;99.90
15072;DHT22;7635;56.696;13.002;2022-09-23T02:28:12;7.60;99.90
15072;DHT22;7635;56.696;13.002;2022-09-23T02:30:44;7.60;99.90
15072;DHT22;7635;56.696;13.002;2022-09-23T02:33:19;7.60;99.90
15072;DHT22;7635;56.696;13.002;2022-09-23T02:35:50;7.60;99.90
15072;DHT22;7635;56.696;13.002;2022-09-23T02:38:25;7.50;99.90
15072;DHT22;7635;56.696;13.002;2022-09-23T02:40:57;7.50;99.90
15072;DHT22;7635;56.696;13.002;2022-09-23T02:43:31;7.40;99.90
15072;DHT22;7635;56.696;13.002;2022-09-23T02:46:01;7.40;99.90
15072;DHT22;7635;56.696;13.002;2022-09-23T02:48:33;7.40;99.90
15072;DHT22;7635;56.696;13.002;2022-09-23T02:51:00;7.40;99.90
15072;DHT22;7635;56.696;13.002;2022-09-23T02:53:29;7.40;99.90
15072;DHT22;7635;56.696;13.002;2022-09-23T02:55:57;7.30;99.90
15072;DHT22;7635;56.696;13.002;2022-09-23T02:58:24;7.30;99.90
15072;DHT22;7635;56.696;13.002;2022-09-23T03:01:00;7.30;99.90
15072;DHT22;7635;56.696;13.002;2022-09-23T03:03:39;7.30;99.90
15072;DHT22;7635;56.696;13.002;2022-09-23T03:06:23;7.30;99.90
15072;DHT22;7635;56.696;13.002;2022-09-23T03:08:56;7.30;99.90
15072;DHT22;7635;56.696;13.002;2022-09-23T03:11:24;7.30;99.90
15072;DHT22;7635;56.696;13.002;2022-09-23T03:14:01;7.30;99.90
15072;DHT22;7635;56.696;13.002;2022-09-23T03:16:33;7.30;99.90
15072;DHT22;7635;56.696;13.002;2022-09-23T03:19:16;7.20;99.90
15072;DHT22;7635;56.696;13.002;2022-09-23T03:21:49;7.20;99.90
15072;DHT22;7635;56.696;13.002;2022-09-23T03:24:20;7.20;99.90
15072;DHT22;7635;56.696;13.002;2022-09-23T03:26:49;7.20;99.90
15072;DHT22;7635;56.696;13.002;2022-09-23T03:29:20;7.20;99.90
15072;DHT22;7635;56.696;13.002;2022-09-23T03:31:48;7.20;99.90
15072;DHT22;7635;56.696;13.002;2022-09-23T03:34:20;7.20;99.90
15072;DHT22;7635;56.696;13.002;2022-09-23T03:36:52;7.20;99.90
15072;DHT22;7635;56.696;13.002;2022-09-23T03:39:32;7.20;99.90
15072;DHT22;7635;56.696;13.002;2022-09-23T03:42:03;7.10;99.90
15072;DHT22;7635;56.696;13.002;2022-09-23T03:44:34;7.10;99.90
15072;DHT22;7635;56.696;13.002;2022-09-23T03:47:04;7.10;99.90
15072;DHT22;7635;56.696;13.002;2022-09-23T03:49:35;7.10;99.90
15072;DHT22;7635;56.696;13.002;2022-09-23T03:52:04;7.10;99.90
15072;DHT22;7635;56.696;13.002;2022-09-23T03:54:30;7.10;99.90
15072;DHT22;7635;56.696;13.002;2022-09-23T03:56:59;7.10;99.90
15072;DHT22;7635;56.696;13.002;2022-09-23T03:59:28;7.10;99.90
15072;DHT22;7635;56.696;13.002;2022-09-23T04:01:56;7.10;99.90
15072;DHT22;7635;56.696;13.002;2022-09-23T04:04:24;7.10;99.90
15072;DHT22;7635;56.696;13.002;2022-09-23T04:06:52;7.10;99.90
15072;DHT22;7635;56.696;13.002;2022-09-23T04:09:19;7.10;99.90
15072;DHT22;7635;56.696;13.002;2022-09-23T04:11:47;7.00;99.90
15072;DHT22;7635;56.696;13.002;2022-09-23T04:14:14;7.00;99.90
15072;DHT22;7635;56.696;13.002;2022-09-23T04:16:41;7.00;99.90
15072;DHT22;7635;56.696;13.002;2022-09-23T04:19:08;7.00;99.90
15072;DHT22;7635;56.696;13.002;2022-09-23T04:21:34;7.00;99.90
15072;DHT22;7635;56.696;13.002;2022-09-23T04:24:03;7.00;99.90
15072;DHT22;7635;56.696;13.002;2022-09-23T04:26:30;7.00;99.90
15072;DHT22;7635;56.696;13.002;2022-09-23T04:28:57;7.00;99.90
15072;DHT22;7635;56.696;13.002;2022-09-23T04:31:24;6.90;99.90
15072;DHT22;7635;56.696;13.002;2022-09-23T04:33:52;6.90;99.90
15072;DHT22;7635;56.696;13.002;2022-09-23T04:36:18;6.90;99.90
15072;DHT22;7635;56.696;13.002;2022-09-23T04:38:47;7.00;99.90
15072;DHT22;7635;56.696;13.002;2022-09-23T04:41:15;6.90;99.90
15072;DHT22;7635;56.696;13.002;2022-09-23T04:43:43;6.90;99.90
15072;DHT22;7635;56.696;13.002;2022-09-23T04:46:11;6.90;99.90
15072;DHT22;7635;56.696;13.002;2022-09-23T04:48:39;6.90;99.90
15072;DHT22;7635;56.696;13.002;2022-09-23T04:51:08;6.90;99.90
15072;DHT22;7635;56.696;13.002;2022-09-23T04:53:37;6.90;99.90
15072;DHT22;7635;56.696;13.002;2022-09-23T04:56:06;6.90;99.90
15072;DHT22;7635;56.696;13.002;2022-09-23T04:58:36;6.90;99.90
15072;DHT22;7635;56.696;13.002;2022-09-23T05:01:12;6.90;99.90
15072;DHT22;7635;56.696;13.002;2022-09-23T05:03:39;6.90;99.90
15072;DHT22;7635;56.696;13.002;2022-09-23T05:06:07;6.90;99.90
15072;DHT22;7635;56.696;13.002;2022-09-23T05:08:35;6.90;99.90
15072;DHT22;7635;56.696;13.002;2022-09-23T05:11:03;7.00;99.90
15072;DHT22;7635;56.696;13.002;2022-09-23T05:13:30;7.00;99.90
15072;DHT22;7635;56.696;13.002;2022-09-23T05:16:00;7.00;99.90
15072;DHT22;7635;56.696;13.002;2022-09-23T05:18:29;7.00;99.90
15072;DHT22;7635;56.696;13.002;2022-09-23T05:20:56;7.00;99.90
15072;DHT22;7635;56.696;13.002;2022-09-23T05:23:23;7.10;99.90
15072;DHT22;7635;56.696;13.002;2022-09-23T05:25:55;7.00;99.90
15072;DHT22;7635;56.696;13.002;2022-09-23T05:28:23;7.10;99.90
15072;DHT22;7635;56.696;13.002;2022-09-23T05:30:50;7.10;99.90
15072;DHT22;7635;56.696;13.002;2022-09-23T05:33:18;7.10;99.90
15072;DHT22;7635;56.696;13.002;2022-09-23T05:35:46;7.10;99.90
15072;DHT22;7635;56.696;13.002;2022-09-23T05:38:13;7.20;99.90
15072;DHT22;7635;56.696;13.002;2022-09-23T05:40:41;7.20;99.90
15072;DHT22;7635;56.696;13.002;2022-09-23T05:43:08;7.20;99.90
15072;DHT22;7635;56.696;13.002;2022-09-23T05:45:35;7.30;99.90
15072;DHT22;7635;56.696;13.002;2022-09-23T05:48:02;7.30;99.90
15072;DHT22;7635;56.696;13.002;2022-09-23T05:50:30;7.30;99.90
15072;DHT22;7635;56.696;13.002;2022-09-23T05:52:57;7.40;99.90
15072;DHT22;7635;56.696;13.002;2022-09-23T05:55:24;7.40;99.90
15072;DHT22;7635;56.696;13.002;2022-09-23T05:57:51;7.40;99.90
15072;DHT22;7635;56.696;13.002;2022-09-23T06:00:18;7.50;99.90
15072;DHT22;7635;56.696;13.002;2022-09-23T06:02:46;7.50;99.90
15072;DHT22;7635;56.696;13.002;2022-09-23T06:05:13;7.50;99.90
15072;DHT22;7635;56.696;13.002;2022-09-23T06:07:42;7.60;99.90
15072;DHT22;7635;56.696;13.002;2022-09-23T06:10:09;7.60;99.90
15072;DHT22;7635;56.696;13.002;2022-09-23T06:12:36;7.60;99.90
15072;DHT22;7635;56.696;13.002;2022-09-23T06:15:03;7.70;99.90
15072;DHT22;7635;56.696;13.002;2022-09-23T06:17:30;7.70;99.90
15072;DHT22;7635;56.696;13.002;2022-09-23T06:19:56;7.80;99.90
15072;DHT22;7635;56.696;13.002;2022-09-23T06:22:23;7.80;99.90
15072;DHT22;7635;56.696;13.002;2022-09-23T06:24:52;7.90;99.90
15072;DHT22;7635;56.696;13.002;2022-09-23T06:27:18;8.00;99.90
15072;DHT22;7635;56.696;13.002;2022-09-23T06:29:45;8.00;99.90
15072;DHT22;7635;56.696;13.002;2022-09-23T06:32:12;8.10;99.90
15072;DHT22;7635;56.696;13.002;2022-09-23T06:34:38;8.10;99.90
15072;DHT22;7635;56.696;13.002;2022-09-23T06:37:06;8.20;99.90
15072;DHT22;7635;56.696;13.002;2022-09-23T06:39:33;8.30;99.90
15072;DHT22;7635;56.696;13.002;2022-09-23T06:42:01;8.30;99.90
15072;DHT22;7635;56.696;13.002;2022-09-23T06:44:31;8.40;99.90
15072;DHT22;7635;56.696;13.002;2022-09-23T06:46:57;8.40;99.90
15072;DHT22;7635;56.696;13.002;2022-09-23T06:49:24;8.50;99.90
15072;DHT22;7635;56.696;13.002;2022-09-23T06:51:51;8.50;99.90
15072;DHT22;7635;56.696;13.002;2022-09-23T06:54:20;8.60;99.90
15072;DHT22;7635;56.696;13.002;2022-09-23T06:56:47;8.70;99.90
15072;DHT22;7635;56.696;13.002;2022-09-23T06:59:15;8.80;99.90
15072;DHT22;7635;56.696;13.002;2022-09-23T07:01:42;8.90;99.90
15072;DHT22;7635;56.696;13.002;2022-09-23T07:04:12;9.00;99.90
15072;DHT22;7635;56.696;13.002;2022-09-23T07:06:39;9.10;99.90
15072;DHT22;7635;56.696;13.002;2022-09-23T07:09:06;9.30;99.90
15072;DHT22;7635;56.696;13.002;2022-09-23T07:11:33;9.50;99.90
15072;DHT22;7635;56.696;13.002;2022-09-23T07:14:00;9.80;99.90
15072;DHT22;7635;56.696;13.002;2022-09-23T07:16:28;10.10;99.90
15072;DHT22;7635;56.696;13.002;2022-09-23T07:18:56;10.30;99.90
15072;DHT22;7635;56.696;13.002;2022-09-23T07:21:22;10.40;99.90
15072;DHT22;7635;56.696;13.002;2022-09-23T07:23:49;10.50;99.90
15072;DHT22;7635;56.696;13.002;2022-09-23T07:26:17;10.50;99.90
15072;DHT22;7635;56.696;13.002;2022-09-23T07:28:44;10.70;99.90
15072;DHT22;7635;56.696;13.002;2022-09-23T07:31:13;10.80;99.90
15072;DHT22;7635;56.696;13.002;2022-09-23T07:33:41;11.00;99.90
15072;DHT22;7635;56.696;13.002;2022-09-23T07:36:10;11.20;99.90
15072;DHT22;7635;56.696;13.002;2022-09-23T07:38:38;11.50;99.90
15072;DHT22;7635;56.696;13.002;2022-09-23T07:41:07;11.70;99.90
15072;DHT22;7635;56.696;13.002;2022-09-23T07:43:35;11.90;99.90
15072;DHT22;7635;56.696;13.002;2022-09-23T07:46:07;12.10;99.90
15072;DHT22;7635;56.696;13.002;2022-09-23T07:48:36;12.30;99.90
15072;DHT22;7635;56.696;13.002;2022-09-23T07:51:07;12.30;99.90
15072;DHT22;7635;56.696;13.002;2022-09-23T07:53:34;12.50;99.90
15072;DHT22;7635;56.696;13.002;2022-09-23T07:56:02;12.50;99.90
15072;DHT22;7635;56.696;13.002;2022-09-23T07:58:30;12.70;99.90
15072;DHT22;7635;56.696;13.002;2022-09-23T08:01:00;12.80;99.90
15072;DHT22;7635;56.696;13.002;2022-09-23T08:03:27;13.00;99.90
15072;DHT22;7635;56.696;13.002;2022-09-23T08:06:02;13.10;99.90
15072;DHT22;7635;56.696;13.002;2022-09-23T08:08:31;13.10;99.90
15072;DHT22;7635;56.696;13.002;2022-09-23T08:11:00;13.20;99.90
15072;DHT22;7635;56.696;13.002;2022-09-23T08:13:27;13.40;99.90
15072;DHT22;7635;56.696;13.002;2022-09-23T08:15:55;13.50;99.90
15072;DHT22;7635;56.696;13.002;2022-09-23T08:18:22;13.50;99.90
15072;DHT22;7635;56.696;13.002;2022-09-23T08:20:49;13.60;99.90
15072;DHT22;7635;56.696;13.002;2022-09-23T08:23:16;13.70;99.90
15072;DHT22;7635;56.696;13.002;2022-09-23T08:25:46;13.80;99.90
15072;DHT22;7635;56.696;13.002;2022-09-23T08:28:13;13.90;99.90
15072;DHT22;7635;56.696;13.002;2022-09-23T08:30:41;14.10;99.90
15072;DHT22;7635;56.696;13.002;2022-09-23T08:33:09;14.30;99.90
15072;DHT22;7635;56.696;13.002;2022-09-23T08:35:36;14.40;99.90
15072;DHT22;7635;56.696;13.002;2022-09-23T08:38:02;14.60;99.90
15072;DHT22;7635;56.696;13.002;2022-09-23T08:40:31;14.70;99.90
15072;DHT22;7635;56.696;13.002;2022-09-23T08:42:59;14.90;99.90
15072;DHT22;7635;56.696;13.002;2022-09-23T08:45:26;14.90;99.90
15072;DHT22;7635;56.696;13.002;2022-09-23T08:47:57;14.90;99.90
15072;DHT22;7635;56.696;13.002;2022-09-23T08:50:29;14.90;99.90
15072;DHT22;7635;56.696;13.002;2022-09-23T08:53:00;14.90;99.90
15072;DHT22;7635;56.696;13.002;2022-09-23T08:55:32;14.90;99.90
15072;DHT22;7635;56.696;13.002;2022-09-23T08:58:06;15.10;99.90
15072;DHT22;7635;56.696;13.002;2022-09-23T09:00:39;15.20;99.90
15072;DHT22;7635;56.696;13.002;2022-09-23T09:03:18;15.40;99.90
15072;DHT22;7635;56.696;13.002;2022-09-23T09:05:48;15.50;99.90
15072;DHT22;7635;56.696;13.002;2022-09-23T09:08:20;15.60;99.90
15072;DHT22;7635;56.696;13.002;2022-09-23T09:10:52;15.80;99.90
15072;DHT22;7635;56.696;13.002;2022-09-23T09:13:29;16.00;99.90
15072;DHT22;7635;56.696;13.002;2022-09-23T09:16:09;16.10;99.90
15072;DHT22;7635;56.696;13.002;2022-09-23T09:18:40;16.30;99.90
15072;DHT22;7635;56.696;13.002;2022-09-23T09:21:11;16.50;99.90
15072;DHT22;7635;56.696;13.002;2022-09-23T09:23:42;16.60;99.90
15072;DHT22;7635;56.696;13.002;2022-09-23T09:26:19;16.70;99.90
15072;DHT22;7635;56.696;13.002;2022-09-23T09:28:52;16.80;99.90
15072;DHT22;7635;56.696;13.002;2022-09-23T09:31:27;17.00;99.90
15072;DHT22;7635;56.696;13.002;2022-09-23T09:34:01;17.10;99.90
15072;DHT22;7635;56.696;13.002;2022-09-23T09:36:37;17.10;99.90
15072;DHT22;7635;56.696;13.002;2022-09-23T09:39:09;17.20;99.90
15072;DHT22;7635;56.696;13.002;2022-09-23T09:41:39;17.20;99.90
15072;DHT22;7635;56.696;13.002;2022-09-23T09:44:19;17.20;99.90
15072;DHT22;7635;56.696;13.002;2022-09-23T09:46:52;17.30;99.90
15072;DHT22;7635;56.696;13.002;2022-09-23T09:49:28;17.20;99.90
15072;DHT22;7635;56.696;13.002;2022-09-23T09:52:20;17.30;99.90
15072;DHT22;7635;56.696;13.002;2022-09-23T09:54:48;17.50;99.90
15072;DHT22;7635;56.696;13.002;2022-09-23T09:57:25;17.60;99.90
15072;DHT22;7635;56.696;13.002;2022-09-23T09:59:56;17.70;99.90
15072;DHT22;7635;56.696;13.002;2022-09-23T10:02:27;17.60;99.90
15072;DHT22;7635;56.696;13.002;2022-09-23T10:05:02;17.40;99.90
15072;DHT22;7635;56.696;13.002;2022-09-23T10:07:32;17.40;99.90
15072;DHT22;7635;56.696;13.002;2022-09-23T10:10:16;17.50;99.90
15072;DHT22;7635;56.696;13.002;2022-09-23T10:12:48;17.60;99.90
15072;DHT22;7635;56.696;13.002;2022-09-23T10:15:28;17.80;99.90
15072;DHT22;7635;56.696;13.002;2022-09-23T10:17:59;18.10;99.90
15072;DHT22;7635;56.696;13.002;2022-09-23T10:20:32;18.60;99.90
15072;DHT22;7635;56.696;13.002;2022-09-23T10:23:05;19.00;99.90
15072;DHT22;7635;56.696;13.002;2022-09-23T10:25:34;19.50;99.90
15072;DHT22;7635;56.696;13.002;2022-09-23T10:28:31;19.80;99.90
15072;DHT22;7635;56.696;13.002;2022-09-23T10:31:07;19.90;99.90
15072;DHT22;7635;56.696;13.002;2022-09-23T10:33:39;20.10;99.90
15072;DHT22;7635;56.696;13.002;2022-09-23T10:36:09;20.30;99.90
15072;DHT22;7635;56.696;13.002;2022-09-23T10:38:36;20.20;99.90
15072;DHT22;7635;56.696;13.002;2022-09-23T10:41:04;20.10;99.90
15072;DHT22;7635;56.696;13.002;2022-09-23T10:44:07;19.80;99.90
15072;DHT22;7635;56.696;13.002;2022-09-23T10:47:04;19.40;99.90
15072;DHT22;7635;56.696;13.002;2022-09-23T10:49:57;19.00;99.90
15072;DHT22;7635;56.696;13.002;2022-09-23T10:52:49;18.70;99.90
15072;DHT22;7635;56.696;13.002;2022-09-23T10:55:29;18.50;99.90
15072;DHT22;7635;56.696;13.002;2022-09-23T10:58:08;18.40;99.90
15072;DHT22;7635;56.696;13.002;2022-09-23T11:00:42;18.30;99.90
15072;DHT22;7635;56.696;13.002;2022-09-23T11:03:35;18.30;99.90
15072;DHT22;7635;56.696;13.002;2022-09-23T11:06:14;18.30;99.90
15072;DHT22;7635;56.696;13.002;2022-09-23T11:11:39;18.30;99.90
15072;DHT22;7635;56.696;13.002;2022-09-23T11:14:24;18.30;99.90
15072;DHT22;7635;56.696;13.002;2022-09-23T11:17:06;18.30;99.90
15072;DHT22;7635;56.696;13.002;2022-09-23T11:19:54;18.30;99.90
15072;DHT22;7635;56.696;13.002;2022-09-23T11:22:36;18.30;99.90
15072;DHT22;7635;56.696;13.002;2022-09-23T11:25:17;18.40;99.90
15072;DHT22;7635;56.696;13.002;2022-09-23T11:28:01;18.50;99.90
15072;DHT22;7635;56.696;13.002;2022-09-23T11:30:38;18.40;99.90
15072;DHT22;7635;56.696;13.002;2022-09-23T11:33:23;18.30;99.90
15072;DHT22;7635;56.696;13.002;2022-09-23T11:35:57;18.20;99.90
15072;DHT22;7635;56.696;13.002;2022-09-23T11:38:32;18.10;99.90
15072;DHT22;7635;56.696;13.002;2022-09-23T11:41:07;18.10;99.90
15072;DHT22;7635;56.696;13.002;2022-09-23T11:43:38;18.10;99.90
15072;DHT22;7635;56.696;13.002;2022-09-23T11:46:09;18.30;99.90
15072;DHT22;7635;56.696;13.002;2022-09-23T11:48:44;18.70;99.90
15072;DHT22;7635;56.696;13.002;2022-09-23T11:51:19;18.70;99.90
15072;DHT22;7635;56.696;13.002;2022-09-23T11:53:50;18.80;99.90
15072;DHT22;7635;56.696;13.002;2022-09-23T11:56:23;18.80;99.90
15072;DHT22;7635;56.696;13.002;2022-09-23T11:58:57;18.80;99.90
15072;DHT22;7635;56.696;13.002;2022-09-23T12:01:29;19.00;99.90
15072;DHT22;7635;56.696;13.002;2022-09-23T12:04:02;18.90;99.90
15072;DHT22;7635;56.696;13.002;2022-09-23T12:06:37;18.80;99.90
15072;DHT22;7635;56.696;13.002;2022-09-23T12:09:13;18.70;99.90
15072;DHT22;7635;56.696;13.002;2022-09-23T12:11:45;18.50;99.90
15072;DHT22;7635;56.696;13.002;2022-09-23T12:14:20;18.40;99.90
15072;DHT22;7635;56.696;13.002;2022-09-23T12:17:05;18.30;99.90
15072;DHT22;7635;56.696;13.002;2022-09-23T12:20:01;18.20;99.90
15072;DHT22;7635;56.696;13.002;2022-09-23T12:22:42;18.10;99.90
15072;DHT22;7635;56.696;13.002;2022-09-23T12:25:30;18.10;99.90
15072;DHT22;7635;56.696;13.002;2022-09-23T12:28:01;18.10;99.90
15072;DHT22;7635;56.696;13.002;2022-09-23T12:30:32;18.00;99.90
15072;DHT22;7635;56.696;13.002;2022-09-23T12:33:07;18.00;99.90
15072;DHT22;7635;56.696;13.002;2022-09-23T12:35:39;18.00;99.90
15072;DHT22;7635;56.696;13.002;2022-09-23T12:38:21;18.00;99.90
15072;DHT22;7635;56.696;13.002;2022-09-23T12:40:51;18.00;99.90
15072;DHT22;7635;56.696;13.002;2022-09-23T12:43:25;18.10;99.90
15072;DHT22;7635;56.696;13.002;2022-09-23T12:45:54;18.10;99.90
15072;DHT22;7635;56.696;13.002;2022-09-23T12:48:46;18.20;99.90
15072;DHT22;7635;56.696;13.002;2022-09-23T12:51:24;18.30;99.90
15072;DHT22;7635;56.696;13.002;2022-09-23T12:57:03;18.30;99.90
15072;DHT22;7635;56.696;13.002;2022-09-23T12:59:32;18.30;99.90
15072;DHT22;7635;56.696;13.002;2022-09-23T13:02:26;18.40;99.90
15072;DHT22;7635;56.696;13.002;2022-09-23T13:04:58;18.40;99.90
15072;DHT22;7635;56.696;13.002;2022-09-23T13:07:48;18.40;99.90
15072;DHT22;7635;56.696;13.002;2022-09-23T13:10:21;18.40;99.90
15072;DHT22;7635;56.696;13.002;2022-09-23T13:12:51;18.40;99.90
15072;DHT22;7635;56.696;13.002;2022-09-23T13:15:26;18.40;99.90
15072;DHT22;7635;56.696;13.002;2022-09-23T13:24:35;18.00;99.90
15072;DHT22;7635;56.696;13.002;2022-09-23T13:27:17;17.90;99.90
15072;DHT22;7635;56.696;13.002;2022-09-23T13:29:49;17.80;99.90
15072;DHT22;7635;56.696;13.002;2022-09-23T13:32:18;17.70;99.90
15072;DHT22;7635;56.696;13.002;2022-09-23T13:34:57;17.60;99.90
15072;DHT22;7635;56.696;13.002;2022-09-23T13:37:29;17.50;99.90
15072;DHT22;7635;56.696;13.002;2022-09-23T13:40:06;17.40;99.90
15072;DHT22;7635;56.696;13.002;2022-09-23T13:42:37;17.30;99.90
15072;DHT22;7635;56.696;13.002;2022-09-23T13:45:13;17.30;99.90
15072;DHT22;7635;56.696;13.002;2022-09-23T13:47:42;17.40;99.90
15072;DHT22;7635;56.696;13.002;2022-09-23T13:50:15;17.40;99.90
15072;DHT22;7635;56.696;13.002;2022-09-23T13:52:43;17.40;99.90
15072;DHT22;7635;56.696;13.002;2022-09-23T13:55:24;17.40;99.90
15072;DHT22;7635;56.696;13.002;2022-09-23T13:57:59;17.40;99.90
15072;DHT22;7635;56.696;13.002;2022-09-23T14:00:31;17.40;99.90
15072;DHT22;7635;56.696;13.002;2022-09-23T14:02:59;17.40;99.90
15072;DHT22;7635;56.696;13.002;2022-09-23T14:05:30;17.40;99.90
15072;DHT22;7635;56.696;13.002;2022-09-23T14:07:58;17.40;99.90
15072;DHT22;7635;56.696;13.002;2022-09-23T14:10:25;17.40;99.90
15072;DHT22;7635;56.696;13.002;2022-09-23T14:12:54;17.40;99.90
15072;DHT22;7635;56.696;13.002;2022-09-23T14:15:23;17.40;99.90
15072;DHT22;7635;56.696;13.002;2022-09-23T14:17:52;17.40;99.90
15072;DHT22;7635;56.696;13.002;2022-09-23T14:20:21;17.30;99.90
15072;DHT22;7635;56.696;13.002;2022-09-23T14:23:01;17.30;99.90
15072;DHT22;7635;56.696;13.002;2022-09-23T14:25:28;17.20;99.90
15072;DHT22;7635;56.696;13.002;2022-09-23T14:27:54;17.20;99.90
15072;DHT22;7635;56.696;13.002;2022-09-23T14:30:23;17.20;99.90
15072;DHT22;7635;56.696;13.002;2022-09-23T14:32:50;17.20;99.90
15072;DHT22;7635;56.696;13.002;2022-09-23T14:35:19;17.10;99.90
15072;DHT22;7635;56.696;13.002;2022-09-23T14:37:49;17.10;99.90
15072;DHT22;7635;56.696;13.002;2022-09-23T14:40:37;17.10;99.90
15072;DHT22;7635;56.696;13.002;2022-09-23T14:43:09;17.10;99.90
15072;DHT22;7635;56.696;13.002;2022-09-23T14:45:40;17.10;99.90
15072;DHT22;7635;56.696;13.002;2022-09-23T14:48:12;17.10;99.90
15072;DHT22;7635;56.696;13.002;2022-09-23T14:50:45;17.00;99.90
15072;DHT22;7635;56.696;13.002;2022-09-23T14:53:32;16.90;99.90
15072;DHT22;7635;56.696;13.002;2022-09-23T14:56:17;16.80;99.90
15072;DHT22;7635;56.696;13.002;2022-09-23T14:58:50;16.70;99.90
15072;DHT22;7635;56.696;13.002;2022-09-23T15:01:34;16.60;99.90
15072;DHT22;7635;56.696;13.002;2022-09-23T15:04:16;16.50;99.90
15072;DHT22;7635;56.696;13.002;2022-09-23T15:06:49;16.40;99.90
15072;DHT22;7635;56.696;13.002;2022-09-23T15:09:20;16.30;99.90
15072;DHT22;7635;56.696;13.002;2022-09-23T15:11:51;16.30;99.90
15072;DHT22;7635;56.696;13.002;2022-09-23T15:14:18;16.20;99.90
15072;DHT22;7635;56.696;13.002;2022-09-23T15:16:46;16.20;99.90
15072;DHT22;7635;56.696;13.002;2022-09-23T15:19:17;16.20;99.90
15072;DHT22;7635;56.696;13.002;2022-09-23T15:21:46;16.10;99.90
15072;DHT22;7635;56.696;13.002;2022-09-23T15:24:37;16.10;99.90
15072;DHT22;7635;56.696;13.002;2022-09-23T15:27:27;16.10;99.90
15072;DHT22;7635;56.696;13.002;2022-09-23T15:30:01;16.00;99.90
15072;DHT22;7635;56.696;13.002;2022-09-23T15:32:32;15.90;99.90
15072;DHT22;7635;56.696;13.002;2022-09-23T15:34:59;15.90;99.90
15072;DHT22;7635;56.696;13.002;2022-09-23T15:37:25;15.90;99.90
15072;DHT22;7635;56.696;13.002;2022-09-23T15:39:52;15.80;99.90
15072;DHT22;7635;56.696;13.002;2022-09-23T15:42:19;15.80;99.90
15072;DHT22;7635;56.696;13.002;2022-09-23T15:44:45;15.80;99.90
15072;DHT22;7635;56.696;13.002;2022-09-23T15:47:15;15.70;99.90
15072;DHT22;7635;56.696;13.002;2022-09-23T15:49:44;15.70;99.90
15072;DHT22;7635;56.696;13.002;2022-09-23T15:52:13;15.70;99.90
15072;DHT22;7635;56.696;13.002;2022-09-23T15:54:41;15.60;99.90
15072;DHT22;7635;56.696;13.002;2022-09-23T15:57:09;15.60;99.90
15072;DHT22;7635;56.696;13.002;2022-09-23T15:59:36;15.60;99.90
15072;DHT22;7635;56.696;13.002;2022-09-23T16:02:05;15.50;99.90
15072;DHT22;7635;56.696;13.002;2022-09-23T16:04:33;15.50;99.90
15072;DHT22;7635;56.696;13.002;2022-09-23T16:07:01;15.50;99.90
15072;DHT22;7635;56.696;13.002;2022-09-23T16:09:30;15.50;99.90
15072;DHT22;7635;56.696;13.002;2022-09-23T16:11:56;15.40;99.90
15072;DHT22;7635;56.696;13.002;2022-09-23T16:14:26;15.40;99.90
15072;DHT22;7635;56.696;13.002;2022-09-23T16:16:53;15.30;99.90
15072;DHT22;7635;56.696;13.002;2022-09-23T16:19:19;15.20;99.90
15072;DHT22;7635;56.696;13.002;2022-09-23T16:21:46;15.20;99.90